createdAt,value
2018-07-25T00:01:12.715Z,11.48
2018-07-25T00:03:39.442Z,12.05
2018-07-25T00:06:06.241Z,11.88
2018-07-25T00:08:32.975Z,14.15
2018-07-25T00:10:59.757Z,12.73
2018-07-25T00:13:26.835Z,12.05
2018-07-25T00:15:53.699Z,14.25
2018-07-25T00:18:20.448Z,13.78
2018-07-25T00:20:47.204Z,11.30
2018-07-25T00:23:13.963Z,11.75
2018-07-25T00:25:40.723Z,11.08
2018-07-25T00:28:07.645Z,11.15
2018-07-25T00:30:34.407Z,11.33
2018-07-25T00:33:01.668Z,13.48
2018-07-25T00:35:28.393Z,10.13
2018-07-25T00:37:55.163Z,11.33
2018-07-25T00:40:21.907Z,10.45
2018-07-25T00:42:49.120Z,12.47
2018-07-25T00:45:15.863Z,10.15
2018-07-25T00:47:42.627Z,10.15
2018-07-25T00:50:09.399Z,10.53
2018-07-25T00:52:36.158Z,10.03
2018-07-25T00:55:02.904Z,10.58
2018-07-25T00:57:29.703Z,10.55
2018-07-25T00:59:56.428Z,10.40
2018-07-25T01:02:23.224Z,10.35
2018-07-25T01:04:49.991Z,10.05
2018-07-25T01:07:16.720Z,11.30
2018-07-25T01:09:43.484Z,11.40
2018-07-25T01:12:10.224Z,11.78
2018-07-25T01:14:37.024Z,11.05
2018-07-25T01:17:03.799Z,12.78
2018-07-25T01:19:30.559Z,10.55
2018-07-25T01:21:57.293Z,11.18
2018-07-25T01:24:24.056Z,10.32
2018-07-25T01:26:50.826Z,10.40
2018-07-25T01:29:17.588Z,10.53
2018-07-25T01:31:44.386Z,12.70
2018-07-25T01:34:11.156Z,10.43
2018-07-25T01:36:37.891Z,10.23
2018-07-25T01:39:06.697Z,10.45
2018-07-25T01:41:33.432Z,9.55
2018-07-25T01:44:00.155Z,9.93
2018-07-25T01:46:26.927Z,10.85
2018-07-25T01:48:53.672Z,11.90
2018-07-25T01:51:20.463Z,10.10
2018-07-25T01:53:47.208Z,10.50
2018-07-25T01:56:13.968Z,10.60
2018-07-25T01:58:40.696Z,10.40
2018-07-25T02:01:07.456Z,10.63
2018-07-25T02:03:34.192Z,9.85
2018-07-25T02:06:01.539Z,9.20
2018-07-25T02:08:28.289Z,11.00
2018-07-25T02:10:55.044Z,10.28
2018-07-25T02:13:21.785Z,10.28
2018-07-25T02:15:48.587Z,12.15
2018-07-25T02:18:15.304Z,13.13
2018-07-25T02:20:42.311Z,12.73
2018-07-25T02:23:09.041Z,12.40
2018-07-25T02:25:35.815Z,10.60
2018-07-25T02:28:02.568Z,10.23
2018-07-25T02:30:29.302Z,10.48
2018-07-25T02:32:56.067Z,10.13
2018-07-25T02:35:22.924Z,10.28
2018-07-25T02:37:49.701Z,10.60
2018-07-25T02:40:16.450Z,10.65
2018-07-25T02:42:43.220Z,10.45
2018-07-25T02:45:09.953Z,9.93
2018-07-25T02:47:36.715Z,9.73
2018-07-25T02:50:03.716Z,11.10
2018-07-25T02:52:30.551Z,10.32
2018-07-25T02:54:57.315Z,10.18
2018-07-25T02:57:24.076Z,12.63
2018-07-25T02:59:50.803Z,11.25
2018-07-25T03:02:17.570Z,10.43
2018-07-25T03:04:44.307Z,10.08
2018-07-25T03:07:11.089Z,12.30
2018-07-25T03:09:37.814Z,10.78
2018-07-25T03:12:04.587Z,10.40
2018-07-25T03:14:31.335Z,9.70
2018-07-25T03:16:58.063Z,12.35
2018-07-25T03:19:24.840Z,12.63
2018-07-25T03:21:51.563Z,10.48
2018-07-25T03:24:18.347Z,10.35
2018-07-25T03:26:45.075Z,12.35
2018-07-25T03:29:11.880Z,11.18
2018-07-25T03:31:38.639Z,10.65
2018-07-25T03:34:05.371Z,9.80
2018-07-25T03:36:32.114Z,11.90
2018-07-25T03:38:58.860Z,12.80
2018-07-25T03:41:25.595Z,11.48
2018-07-25T03:43:52.356Z,10.13
2018-07-25T03:46:19.095Z,10.78
2018-07-25T03:48:45.983Z,10.20
2018-07-25T03:51:12.729Z,12.43
2018-07-25T03:53:39.727Z,11.30
2018-07-25T03:56:06.512Z,10.30
2018-07-25T03:58:33.231Z,10.35
2018-07-25T04:01:00.000Z,11.13
2018-07-25T04:03:26.736Z,10.60
2018-07-25T04:05:53.494Z,10.77
2018-07-25T04:08:20.251Z,10.20
2018-07-25T04:10:47.593Z,10.90
2018-07-25T04:13:14.504Z,9.90
2018-07-25T04:15:41.272Z,10.67
2018-07-25T04:18:08.010Z,12.43
2018-07-25T04:20:34.771Z,12.57
2018-07-25T04:23:01.955Z,12.25
2018-07-25T04:25:28.787Z,12.47
2018-07-25T04:27:55.544Z,12.35
2018-07-25T04:30:22.316Z,11.25
2018-07-25T04:32:49.201Z,12.28
2018-07-25T04:35:16.364Z,10.95
2018-07-25T04:37:43.474Z,10.87
2018-07-25T04:40:10.263Z,10.50
2018-07-25T04:42:37.328Z,11.97
2018-07-25T04:45:05.463Z,10.88
2018-07-25T04:47:33.284Z,10.33
2018-07-25T04:50:00.029Z,10.68
2018-07-25T04:52:26.799Z,10.20
2018-07-25T04:54:53.536Z,10.57
2018-07-25T04:57:20.348Z,10.87
2018-07-25T04:59:47.075Z,9.47
2018-07-25T05:02:13.844Z,10.97
2018-07-25T05:04:40.575Z,10.50
2018-07-25T05:07:07.393Z,10.93
2018-07-25T05:09:34.087Z,10.35
2018-07-25T05:12:01.320Z,10.30
2018-07-25T05:14:28.048Z,10.47
2018-07-25T05:16:54.816Z,9.60
2018-07-25T05:19:21.565Z,9.85
2018-07-25T05:21:48.291Z,9.88
2018-07-25T05:24:15.083Z,9.03
2018-07-25T05:26:41.810Z,10.10
2018-07-25T05:29:08.600Z,10.57
2018-07-25T05:31:35.330Z,11.28
2018-07-25T05:34:02.091Z,9.18
2018-07-25T05:36:28.831Z,10.28
2018-07-25T05:38:55.591Z,10.00
2018-07-25T05:41:22.320Z,9.80
2018-07-25T05:43:49.145Z,9.65
2018-07-25T05:46:15.901Z,11.70
2018-07-25T05:48:42.648Z,11.07
2018-07-25T05:51:09.383Z,9.40
2018-07-25T05:53:36.144Z,9.55
2018-07-25T05:56:02.910Z,8.73
2018-07-25T05:58:29.663Z,11.30
2018-07-25T06:00:56.536Z,9.63
2018-07-25T06:03:23.404Z,8.55
2018-07-25T06:05:50.086Z,10.58
2018-07-25T06:08:16.799Z,9.08
2018-07-25T06:10:43.607Z,8.93
2018-07-25T06:13:10.377Z,10.60
2018-07-25T06:15:37.148Z,9.20
2018-07-25T06:18:03.924Z,11.45
2018-07-25T06:20:30.678Z,9.45
2018-07-25T06:22:57.405Z,8.38
2018-07-25T06:25:24.184Z,9.25
2018-07-25T06:27:51.279Z,11.00
2018-07-25T06:30:18.014Z,9.53
2018-07-25T06:32:44.732Z,9.28
2018-07-25T06:35:11.572Z,8.95
2018-07-25T06:37:38.295Z,8.90
2018-07-25T06:40:06.103Z,8.78
2018-07-25T06:42:32.838Z,9.18
2018-07-25T06:44:59.711Z,8.93
2018-07-25T06:47:26.451Z,8.55
2018-07-25T06:49:53.179Z,9.43
2018-07-25T06:52:19.935Z,8.30
2018-07-25T06:54:46.727Z,8.50
2018-07-25T06:57:13.489Z,8.78
2018-07-25T06:59:40.171Z,8.68
2018-07-25T07:02:07.008Z,8.40
2018-07-25T07:04:33.740Z,8.58
2018-07-25T07:07:00.599Z,10.53
2018-07-25T07:09:27.263Z,10.13
2018-07-25T07:11:54.013Z,10.50
2018-07-25T07:14:21.021Z,9.03
2018-07-25T07:16:47.783Z,8.60
2018-07-25T07:19:14.503Z,8.60
2018-07-25T07:21:41.267Z,8.75
2018-07-25T07:24:08.015Z,9.40
2018-07-25T07:26:34.744Z,8.60
2018-07-25T07:29:01.992Z,9.83
2018-07-25T07:31:28.762Z,8.30
2018-07-25T07:33:55.515Z,8.70
2018-07-25T07:36:22.236Z,8.38
2018-07-25T07:38:49.015Z,8.78
2018-07-25T07:41:15.739Z,10.63
2018-07-25T07:43:42.513Z,9.45
2018-07-25T07:46:09.323Z,9.08
2018-07-25T07:48:36.075Z,8.53
2018-07-25T07:51:02.799Z,9.20
2018-07-25T07:53:29.573Z,8.53
2018-07-25T07:55:56.299Z,9.10
2018-07-25T07:58:23.052Z,8.73
2018-07-25T08:00:49.778Z,8.58
2018-07-25T08:03:16.534Z,9.03
2018-07-25T08:05:43.246Z,9.18
2018-07-25T08:08:09.999Z,8.83
2018-07-25T08:10:36.869Z,8.88
2018-07-25T08:13:03.587Z,9.13
2018-07-25T08:15:30.359Z,9.25
2018-07-25T08:17:57.101Z,8.80
2018-07-25T08:20:23.899Z,9.28
2018-07-25T08:22:50.648Z,9.98
2018-07-25T08:25:17.411Z,10.50
2018-07-25T08:27:44.166Z,9.60
2018-07-25T08:30:10.907Z,9.53
2018-07-25T08:32:37.657Z,9.25
2018-07-25T08:35:04.407Z,10.98
2018-07-25T08:37:31.135Z,11.60
2018-07-25T08:39:57.932Z,8.88
2018-07-25T08:42:24.651Z,9.58
2018-07-25T08:44:51.407Z,9.63
2018-07-25T08:47:18.129Z,9.90
2018-07-25T08:49:44.887Z,10.18
2018-07-25T08:52:11.612Z,9.68
2018-07-25T08:54:38.369Z,10.18
2018-07-25T08:57:05.130Z,10.03
2018-07-25T08:59:31.900Z,9.50
2018-07-25T09:01:58.653Z,10.23
2018-07-25T09:04:25.429Z,9.68
2018-07-25T09:06:52.179Z,10.93
2018-07-25T09:09:18.933Z,10.78
2018-07-25T09:11:45.712Z,10.35
2018-07-25T09:14:12.475Z,9.80
2018-07-25T09:16:39.249Z,9.65
2018-07-25T09:19:06.006Z,9.78
2018-07-25T09:21:32.828Z,8.98
2018-07-25T09:23:59.552Z,9.58
2018-07-25T09:26:26.369Z,9.33
2018-07-25T09:28:53.588Z,11.40
2018-07-25T09:31:20.432Z,9.95
2018-07-25T09:33:47.279Z,10.23
2018-07-25T09:36:13.968Z,9.70
2018-07-25T09:38:40.705Z,9.88
2018-07-25T09:41:07.478Z,9.60
2018-07-25T09:43:34.204Z,9.48
2018-07-25T09:46:01.603Z,9.50
2018-07-25T09:48:28.367Z,9.40
2018-07-25T09:50:55.104Z,9.78
2018-07-25T09:53:21.936Z,9.30
2018-07-25T09:55:48.660Z,11.38
2018-07-25T09:58:15.448Z,9.75
2018-07-25T10:00:47.954Z,11.20
2018-07-25T10:03:14.876Z,10.15
2018-07-25T10:05:41.691Z,10.60
2018-07-25T10:08:08.683Z,12.10
2018-07-25T10:10:35.456Z,11.25
2018-07-25T10:13:02.367Z,10.48
2018-07-25T10:15:29.103Z,11.28
2018-07-25T10:17:55.920Z,9.73
2018-07-25T10:20:22.841Z,9.73
2018-07-25T10:22:49.624Z,9.38
2018-07-25T10:25:16.348Z,9.25
2018-07-25T10:27:43.195Z,9.50
2018-07-25T10:30:09.954Z,10.30
2018-07-25T10:32:36.705Z,9.40
2018-07-25T10:35:03.568Z,10.28
2018-07-25T10:37:30.272Z,8.75
2018-07-25T10:39:57.672Z,7.83
2018-07-25T10:42:25.996Z,7.53
2018-07-25T10:44:56.968Z,8.48
2018-07-25T10:47:23.963Z,7.78
2018-07-25T10:49:52.307Z,8.95
2018-07-25T10:52:21.095Z,8.45
2018-07-25T10:54:47.855Z,9.90
2018-07-25T10:57:15.512Z,10.55
2018-07-25T10:59:42.279Z,10.40
2018-07-25T11:02:09.452Z,10.65
2018-07-25T11:04:36.172Z,9.85
2018-07-25T11:07:02.951Z,10.58
2018-07-25T11:09:29.750Z,9.20
2018-07-25T11:11:57.376Z,10.15
2018-07-25T11:14:24.187Z,10.32
2018-07-25T11:16:51.159Z,9.53
2018-07-25T11:19:17.902Z,9.23
2018-07-25T11:21:44.741Z,8.20
2018-07-25T11:24:11.479Z,8.28
2018-07-25T11:26:38.308Z,7.53
2018-07-25T11:29:05.089Z,7.58
2018-07-25T11:31:31.863Z,8.25
2018-07-25T11:33:58.616Z,7.37
2018-07-25T11:36:25.419Z,7.67
2018-07-25T11:38:52.228Z,7.42
2018-07-25T11:41:19.008Z,7.85
2018-07-25T11:43:45.808Z,8.15
2018-07-25T11:46:12.539Z,8.50
2018-07-25T11:48:39.359Z,8.35
2018-07-25T11:51:06.240Z,7.90
2018-07-25T11:53:33.004Z,7.90
2018-07-25T11:55:59.847Z,8.50
2018-07-25T11:58:26.637Z,8.28
2018-07-25T12:00:53.465Z,7.25
2018-07-25T12:03:20.272Z,7.22
2018-07-25T12:05:47.026Z,7.05
2018-07-25T12:08:13.824Z,7.78
2018-07-25T12:10:40.575Z,7.75
2018-07-25T12:13:07.365Z,7.12
2018-07-25T12:15:34.107Z,7.10
2018-07-25T12:18:00.948Z,7.80
2018-07-25T12:20:27.729Z,7.97
2018-07-25T12:22:54.509Z,7.12
2018-07-25T12:25:21.797Z,9.10
2018-07-25T12:27:48.608Z,8.70
2018-07-25T12:30:15.401Z,7.80
2018-07-25T12:32:42.170Z,7.83
2018-07-25T12:35:09.701Z,7.50
2018-07-25T12:37:36.548Z,7.08
2018-07-25T12:40:03.649Z,6.87
2018-07-25T12:42:30.392Z,7.03
2018-07-25T12:44:57.163Z,6.80
2018-07-25T12:47:23.912Z,6.70
2018-07-25T12:49:50.812Z,6.45
2018-07-25T12:52:17.587Z,6.33
2018-07-25T12:54:44.851Z,7.42
2018-07-25T12:57:11.662Z,6.05
2018-07-25T12:59:38.460Z,7.25
2018-07-25T13:02:05.336Z,6.62
2018-07-25T13:04:32.175Z,7.58
2018-07-25T13:06:58.907Z,7.55
2018-07-25T13:09:25.714Z,7.35
2018-07-25T13:11:54.372Z,8.23
2018-07-25T13:14:21.258Z,7.65
2018-07-25T13:16:48.012Z,9.35
2018-07-25T13:19:14.775Z,8.10
2018-07-25T13:21:41.568Z,7.55
2018-07-25T13:24:08.507Z,7.00
2018-07-25T13:26:35.295Z,7.70
2018-07-25T13:29:02.067Z,6.97
2018-07-25T13:31:28.909Z,6.72
2018-07-25T13:33:55.784Z,7.33
2018-07-25T13:36:22.576Z,7.67
2018-07-25T13:38:49.328Z,6.97
2018-07-25T13:41:16.088Z,6.65
2018-07-25T13:43:42.828Z,6.22
2018-07-25T13:46:09.699Z,6.83
2018-07-25T13:48:36.686Z,7.60
2018-07-25T13:51:03.412Z,6.20
2018-07-25T13:53:30.168Z,5.75
2018-07-25T13:55:56.949Z,5.95
2018-07-25T13:58:23.835Z,5.42
2018-07-25T14:00:50.671Z,5.92
2018-07-25T14:03:17.403Z,5.53
2018-07-25T14:05:44.214Z,5.78
2018-07-25T14:08:10.956Z,5.78
2018-07-25T14:10:37.719Z,5.72
2018-07-25T14:13:04.508Z,6.03
2018-07-25T14:15:31.239Z,6.30
2018-07-25T14:17:58.045Z,6.55
2018-07-25T14:20:24.757Z,6.83
2018-07-25T14:22:51.571Z,6.15
2018-07-25T14:25:18.312Z,5.58
2018-07-25T14:27:45.104Z,4.70
2018-07-25T14:30:11.888Z,4.42
2018-07-25T14:32:38.614Z,4.53
2018-07-25T14:35:05.357Z,4.50
2018-07-25T14:37:32.107Z,4.75
2018-07-25T14:39:58.943Z,5.25
2018-07-25T14:42:25.660Z,4.97
2018-07-25T14:44:52.392Z,5.55
2018-07-25T14:47:19.219Z,4.95
2018-07-25T14:49:45.983Z,4.87
2018-07-25T14:52:12.711Z,5.58
2018-07-25T14:54:39.533Z,5.60
2018-07-25T14:57:06.292Z,5.35
2018-07-25T14:59:33.056Z,5.92
2018-07-25T15:01:59.804Z,5.75
2018-07-25T15:04:26.572Z,7.25
2018-07-25T15:06:53.308Z,6.65
2018-07-25T15:09:20.064Z,6.95
2018-07-25T15:11:46.876Z,7.35
2018-07-25T15:14:13.639Z,6.33
2018-07-25T15:16:40.376Z,7.30
2018-07-25T15:19:07.149Z,6.83
2018-07-25T15:21:33.860Z,6.60
2018-07-25T15:24:03.961Z,6.92
2018-07-25T15:26:30.692Z,7.30
2018-07-25T15:28:58.892Z,6.92
2018-07-25T15:31:25.680Z,6.55
2018-07-25T15:33:52.428Z,6.80
2018-07-25T15:36:47.791Z,5.87
2018-07-25T15:39:16.945Z,6.25
2018-07-25T15:41:44.980Z,5.97
2018-07-25T15:44:11.715Z,5.85
2018-07-25T15:46:38.492Z,6.30
2018-07-25T15:49:05.553Z,6.57
2018-07-25T15:51:32.388Z,6.20
2018-07-25T15:53:59.148Z,6.55
2018-07-25T15:56:25.916Z,6.40
2018-07-25T15:58:52.643Z,6.35
2018-07-25T16:01:19.445Z,6.17
2018-07-25T16:03:46.245Z,6.80
2018-07-25T16:06:13.016Z,6.87
2018-07-25T16:08:39.754Z,6.75
2018-07-25T16:11:06.692Z,7.30
2018-07-25T16:13:33.417Z,7.62
2018-07-25T16:16:00.180Z,7.50
2018-07-25T16:18:26.932Z,7.08
2018-07-25T16:20:53.728Z,6.87
2018-07-25T16:23:20.492Z,7.43
2018-07-25T16:25:47.211Z,7.17
2018-07-25T16:28:14.076Z,7.50
2018-07-25T16:30:40.807Z,6.05
2018-07-25T16:33:07.569Z,6.75
2018-07-25T16:35:34.328Z,6.45
2018-07-25T16:38:01.614Z,6.83
2018-07-25T16:40:28.503Z,6.92
2018-07-25T16:42:55.262Z,6.65
2018-07-25T16:45:22.014Z,7.45
2018-07-25T16:47:48.806Z,8.20
2018-07-25T16:50:15.519Z,6.95
2018-07-25T16:52:42.283Z,6.50
2018-07-25T16:55:09.036Z,6.67
2018-07-25T16:57:36.183Z,7.10
2018-07-25T17:00:03.767Z,7.17
2018-07-25T17:02:30.609Z,7.62
2018-07-25T17:04:57.311Z,7.92
2018-07-25T17:07:24.064Z,6.92
2018-07-25T17:09:50.815Z,8.03
2018-07-25T17:12:17.539Z,7.60
2018-07-25T17:14:44.491Z,7.42
2018-07-25T17:17:11.297Z,7.17
2018-07-25T17:19:38.096Z,7.22
2018-07-25T17:22:04.835Z,7.28
2018-07-25T17:24:31.693Z,7.62
2018-07-25T17:26:58.430Z,7.42
2018-07-25T17:29:25.216Z,7.45
2018-07-25T17:31:51.978Z,7.78
2018-07-25T17:34:18.762Z,7.20
2018-07-25T17:36:45.507Z,8.65
2018-07-25T17:39:12.284Z,9.28
2018-07-25T17:41:39.750Z,14.13
2018-07-25T17:44:06.528Z,10.08
2018-07-25T17:46:33.248Z,14.03
2018-07-25T17:49:00.052Z,12.75
2018-07-25T17:51:26.818Z,12.55
2018-07-25T17:53:53.585Z,10.10
2018-07-25T17:56:20.590Z,10.40
2018-07-25T17:58:47.370Z,11.60
2018-07-25T18:01:14.300Z,11.45
2018-07-25T18:03:41.169Z,15.60
2018-07-25T18:06:07.990Z,16.93
2018-07-25T18:08:34.929Z,10.75
2018-07-25T18:11:02.709Z,9.68
2018-07-25T18:13:38.573Z,16.23
2018-07-25T18:16:05.652Z,14.45
2018-07-25T18:18:32.371Z,14.33
2018-07-25T18:21:01.699Z,11.57
2018-07-25T18:23:28.442Z,11.28
2018-07-25T18:25:55.288Z,9.48
2018-07-25T18:28:22.051Z,10.65
2018-07-25T18:30:48.948Z,11.68
2018-07-25T18:33:15.700Z,12.10
2018-07-25T18:35:42.515Z,10.35
2018-07-25T18:38:09.215Z,8.83
2018-07-25T18:40:35.979Z,7.75
2018-07-25T18:43:03.075Z,7.53
2018-07-25T18:45:29.898Z,8.55
2018-07-25T18:47:56.655Z,9.53
2018-07-25T18:50:23.396Z,8.40
2018-07-25T18:52:50.159Z,13.18
2018-07-25T18:55:16.884Z,11.43
2018-07-25T18:57:43.730Z,10.88
2018-07-25T19:00:10.486Z,10.50
2018-07-25T19:02:37.254Z,8.35
2018-07-25T19:05:03.967Z,7.42
2018-07-25T19:07:30.804Z,7.83
2018-07-25T19:09:57.529Z,7.85
2018-07-25T19:12:24.303Z,6.30
2018-07-25T19:14:56.949Z,6.35
2018-07-25T19:17:23.716Z,5.95
2018-07-25T19:19:50.445Z,5.75
2018-07-25T19:22:17.279Z,5.83
2018-07-25T19:24:44.057Z,5.92
2018-07-25T19:27:10.832Z,4.83
2018-07-25T19:29:37.703Z,4.55
2018-07-25T19:32:04.602Z,4.53
2018-07-25T19:34:31.355Z,5.37
2018-07-25T19:36:58.092Z,6.03
2018-07-25T19:39:28.996Z,5.37
2018-07-25T19:41:55.792Z,5.45
2018-07-25T19:44:22.564Z,5.87
2018-07-25T19:46:49.336Z,5.55
2018-07-25T19:49:16.107Z,5.97
2018-07-25T19:51:42.861Z,6.05
2018-07-25T19:54:09.617Z,6.45
2018-07-25T19:56:36.352Z,6.00
2018-07-25T19:59:03.947Z,6.00
2018-07-25T20:01:30.681Z,6.55
2018-07-25T20:03:57.450Z,6.37
2018-07-25T20:06:24.193Z,7.85
2018-07-25T20:11:17.675Z,8.03
2018-07-25T20:13:50.138Z,8.10
2018-07-25T20:16:16.961Z,8.70
2018-07-25T20:18:43.720Z,9.50
2018-07-25T20:21:10.569Z,8.38
2018-07-25T20:23:37.511Z,8.18
2018-07-25T20:26:04.389Z,7.53
2018-07-25T20:28:31.136Z,7.90
2018-07-25T20:30:57.915Z,7.90
2018-07-25T20:33:24.708Z,7.58
2018-07-25T20:35:53.146Z,8.38
2018-07-25T20:38:19.828Z,6.90
2018-07-25T20:40:46.583Z,7.37
2018-07-25T20:43:13.433Z,7.30
2018-07-25T20:45:40.233Z,7.10
2018-07-25T20:48:06.959Z,7.92
2018-07-25T20:50:33.706Z,7.03
2018-07-25T20:53:00.458Z,6.90
2018-07-25T20:55:27.332Z,7.45
2018-07-25T20:57:54.151Z,7.67
2018-07-25T21:00:26.627Z,8.18
2018-07-25T21:02:53.380Z,7.67
2018-07-25T21:05:20.148Z,9.23
2018-07-25T21:07:46.909Z,13.50
2018-07-25T21:10:14.348Z,12.93
2018-07-25T21:12:40.460Z,12.35
2018-07-25T21:15:07.792Z,10.75
2018-07-25T21:17:34.552Z,8.58
2018-07-25T21:20:01.284Z,8.68
2018-07-25T21:22:28.162Z,8.30
2018-07-25T21:24:54.908Z,9.33
2018-07-25T21:27:21.673Z,8.40
2018-07-25T21:29:48.836Z,8.20
2018-07-25T21:32:15.643Z,8.08
2018-07-25T21:34:42.431Z,9.53
2018-07-25T21:37:09.177Z,9.83
2018-07-25T21:39:35.935Z,7.92
2018-07-25T21:42:02.715Z,7.75
2018-07-25T21:44:30.454Z,7.62
2018-07-25T21:46:57.191Z,8.35
2018-07-25T21:49:23.955Z,9.05
2018-07-25T21:51:50.693Z,8.53
2018-07-25T21:54:17.440Z,8.65
2018-07-25T21:56:44.158Z,7.92
2018-07-25T21:59:11.303Z,8.48
2018-07-25T22:01:38.367Z,8.38
2018-07-25T22:04:05.588Z,8.88
2018-07-25T22:06:32.685Z,8.98
2018-07-25T22:08:59.537Z,11.20
2018-07-25T22:11:26.274Z,10.30
2018-07-25T22:13:53.847Z,9.58
2018-07-25T22:16:20.608Z,9.95
2018-07-25T22:18:47.355Z,8.88
2018-07-25T22:21:14.482Z,9.10
2018-07-25T22:23:41.550Z,8.68
2018-07-25T22:26:08.316Z,11.65
2018-07-25T22:28:35.067Z,9.93
2018-07-25T22:31:02.054Z,9.15
2018-07-25T22:33:28.993Z,9.60
2018-07-25T22:35:55.813Z,10.50
2018-07-25T22:38:22.559Z,9.50
2018-07-25T22:40:49.372Z,11.68
2018-07-25T22:43:16.132Z,11.53
2018-07-25T22:45:42.910Z,11.97
2018-07-25T22:48:09.707Z,10.00
2018-07-25T22:50:36.468Z,9.20
2018-07-25T22:53:03.193Z,9.50
2018-07-25T22:55:30.047Z,8.95
2018-07-25T22:57:56.723Z,8.85
2018-07-25T23:00:23.467Z,8.70
2018-07-25T23:02:50.236Z,7.95
2018-07-25T23:05:16.967Z,8.38
2018-07-25T23:07:43.742Z,7.30
2018-07-25T23:10:10.496Z,7.75
2018-07-25T23:12:37.265Z,7.78
2018-07-25T23:15:04.205Z,8.68
2018-07-25T23:17:30.981Z,7.12
2018-07-25T23:19:57.828Z,7.20
2018-07-25T23:22:24.497Z,7.10
2018-07-25T23:24:51.263Z,7.30
2018-07-25T23:27:18.036Z,9.40
2018-07-25T23:29:44.822Z,9.53
2018-07-25T23:32:12.591Z,8.48
2018-07-25T23:34:39.324Z,8.50
2018-07-25T23:37:06.216Z,11.10
2018-07-25T23:39:32.884Z,12.00
2018-07-25T23:41:59.712Z,10.63
2018-07-25T23:44:26.471Z,8.03
2018-07-25T23:46:53.203Z,8.35
2018-07-25T23:49:19.968Z,8.35
2018-07-25T23:51:46.689Z,7.53
2018-07-25T23:54:13.531Z,7.72
2018-07-25T23:56:40.934Z,7.55
2018-07-25T23:59:07.031Z,9.30
